Terminal Aerodrome Forecast
Issued by NWS

Home | Current Version | Previous Version | Text Only | Print | Product List | Glossary Off
Versions: 1 2 3 4 5 6 7 8 9 10 11

000
FTUS43 KTOP 251100
TAFFOE
TAF
KFOE 251132Z 2512/2612 19006KT P6SM SCT200
     FM251700 21013G20KT P6SM FEW070 BKN100
     FM252300 33026G35KT 4SM -RASN BKN023
     FM260500 36024G31KT P6SM OVC013=

USA.gov is the U.S. government's official web portal to all federal, state and local government web resources and services.